createdAt,value
2023-01-19T00:01:43.691Z,47.54
2023-01-19T00:04:11.424Z,47.59
2023-01-19T00:06:39.307Z,47.34
2023-01-19T00:09:07.008Z,47.14
2023-01-19T00:11:34.879Z,47.45
2023-01-19T00:14:02.832Z,47.12
2023-01-19T00:16:31.275Z,47.29
2023-01-19T00:18:58.915Z,47.28
2023-01-19T00:21:26.722Z,47.26
2023-01-19T00:23:54.570Z,47.30
2023-01-19T00:26:22.594Z,47.46
2023-01-19T00:28:51.452Z,47.45
2023-01-19T00:31:21.803Z,47.29
2023-01-19T00:33:51.451Z,47.45
2023-01-19T00:36:19.645Z,47.23
2023-01-19T00:38:48.388Z,47.34
2023-01-19T00:41:17.849Z,47.62
2023-01-19T00:43:45.703Z,47.61
2023-01-19T00:46:13.535Z,47.45
2023-01-19T00:48:41.534Z,47.57
2023-01-19T00:51:09.243Z,47.52
2023-01-19T00:53:37.104Z,47.55
2023-01-19T00:56:05.219Z,47.39
2023-01-19T00:58:32.978Z,47.68
2023-01-19T01:01:03.718Z,47.66
2023-01-19T01:03:32.847Z,47.74
2023-01-19T01:06:03.975Z,47.64
2023-01-19T01:08:31.724Z,47.75
2023-01-19T01:10:59.540Z,47.86
2023-01-19T01:13:28.247Z,47.79
2023-01-19T01:15:57.284Z,47.99
2023-01-19T01:18:26.295Z,47.80
2023-01-19T01:21:04.014Z,48.08
2023-01-19T01:23:31.959Z,47.79
2023-01-19T01:25:59.767Z,47.74
2023-01-19T01:28:27.522Z,47.77
2023-01-19T01:30:57.087Z,47.82
2023-01-19T01:33:39.841Z,47.79
2023-01-19T01:36:11.727Z,47.67
2023-01-19T01:38:41.537Z,47.71
2023-01-19T01:41:09.627Z,47.54
2023-01-19T01:43:59.948Z,47.61
2023-01-19T01:46:31.069Z,47.75
2023-01-19T01:49:17.747Z,47.71
2023-01-19T01:51:54.764Z,47.97
2023-01-19T01:54:32.706Z,47.74
2023-01-19T01:57:06.393Z,48.17
2023-01-19T01:59:39.223Z,47.98
2023-01-19T02:02:34.579Z,48.03
2023-01-19T02:05:17.799Z,47.97
2023-01-19T02:08:42.684Z,48.11
2023-01-19T02:11:29.833Z,48.09
2023-01-19T02:13:57.722Z,48.03
2023-01-19T02:16:25.733Z,47.95
2023-01-19T02:18:53.586Z,48.23
2023-01-19T02:21:59.475Z,47.75
2023-01-19T02:24:29.259Z,48.06
2023-01-19T02:26:58.125Z,48.29
2023-01-19T02:29:28.166Z,47.99
2023-01-19T02:31:57.286Z,47.90
2023-01-19T02:34:25.332Z,47.92
2023-01-19T02:37:07.538Z,47.80
2023-01-19T02:39:50.813Z,48.08
2023-01-19T02:42:35.923Z,48.18
2023-01-19T02:45:09.616Z,48.10
2023-01-19T02:47:57.509Z,48.30
2023-01-19T02:50:46.947Z,48.37
2023-01-19T02:53:32.566Z,48.15
2023-01-19T02:56:03.071Z,48.61
2023-01-19T02:58:57.005Z,48.48
2023-01-19T03:01:30.374Z,48.89
2023-01-19T03:04:44.090Z,48.34
2023-01-19T03:07:24.997Z,48.94
2023-01-19T03:10:07.720Z,48.49
2023-01-19T03:13:05.958Z,49.22
2023-01-19T03:16:22.816Z,48.95
2023-01-19T03:19:24.799Z,49.14
2023-01-19T03:22:07.379Z,49.15
2023-01-19T03:24:40.403Z,49.28
2023-01-19T03:27:33.836Z,49.17
2023-01-19T03:30:16.045Z,49.16
2023-01-19T03:32:56.409Z,48.85
2023-01-19T03:35:30.038Z,48.73
2023-01-19T03:38:01.016Z,48.89
2023-01-19T03:40:32.514Z,48.97
2023-01-19T03:43:03.041Z,48.82
2023-01-19T03:45:35.587Z,48.69
2023-01-19T03:48:05.071Z,48.97
2023-01-19T03:50:33.086Z,48.84
2023-01-19T03:53:06.263Z,49.03
2023-01-19T03:55:36.031Z,49.25
2023-01-19T03:58:03.972Z,49.14
2023-01-19T04:00:31.999Z,49.02
2023-01-19T04:03:00.619Z,49.08
2023-01-19T04:05:29.443Z,49.38
2023-01-19T04:07:57.217Z,48.94
2023-01-19T04:10:25.637Z,48.85
2023-01-19T04:13:01.753Z,48.91
2023-01-19T04:15:30.687Z,48.92
2023-01-19T04:18:00.146Z,49.24
2023-01-19T04:20:28.545Z,49.20
2023-01-19T04:23:01.028Z,49.27
2023-01-19T04:25:29.577Z,49.09
2023-01-19T04:28:00.493Z,48.66
2023-01-19T04:30:28.637Z,48.74
2023-01-19T04:32:59.952Z,48.96
2023-01-19T04:35:27.933Z,48.82
2023-01-19T04:37:55.863Z,48.70
2023-01-19T04:40:23.644Z,48.45
2023-01-19T04:42:51.435Z,48.66
2023-01-19T04:45:19.119Z,48.68
2023-01-19T04:47:46.932Z,48.55
2023-01-19T04:50:15.231Z,48.36
2023-01-19T04:52:42.992Z,48.29
2023-01-19T04:55:11.000Z,48.47
2023-01-19T04:57:39.407Z,48.77
2023-01-19T05:00:08.571Z,48.56
2023-01-19T05:02:36.942Z,48.92
2023-01-19T05:05:05.411Z,49.06
2023-01-19T05:07:33.516Z,48.98
2023-01-19T05:10:01.582Z,49.19
2023-01-19T05:12:29.346Z,49.37
2023-01-19T05:14:57.169Z,49.48
2023-01-19T05:17:25.299Z,49.67
2023-01-19T05:19:53.011Z,49.42
2023-01-19T05:22:20.766Z,49.55
2023-01-19T05:24:48.760Z,49.70
2023-01-19T05:27:16.652Z,49.38
2023-01-19T05:29:44.587Z,49.68
2023-01-19T05:32:13.655Z,49.70
2023-01-19T05:34:41.529Z,49.52
2023-01-19T05:37:09.468Z,49.44
2023-01-19T05:39:37.388Z,49.16
2023-01-19T05:42:05.660Z,49.34
2023-01-19T05:44:33.367Z,49.43
2023-01-19T05:47:01.283Z,49.27
2023-01-19T05:49:28.976Z,49.09
2023-01-19T05:51:56.677Z,49.08
2023-01-19T05:54:24.396Z,48.80
2023-01-19T05:56:52.409Z,48.99
2023-01-19T05:59:24.093Z,48.57
2023-01-19T06:01:53.044Z,48.75
2023-01-19T06:04:21.458Z,48.91
2023-01-19T06:06:50.377Z,48.58
2023-01-19T06:09:18.724Z,49.17
2023-01-19T06:11:47.354Z,49.05
2023-01-19T06:14:15.213Z,48.85
2023-01-19T06:16:43.096Z,48.95
2023-01-19T06:19:11.147Z,49.08
2023-01-19T06:21:38.820Z,49.00
2023-01-19T06:24:06.687Z,49.07
2023-01-19T06:26:34.399Z,48.99
2023-01-19T06:29:02.139Z,49.08
2023-01-19T06:31:29.961Z,49.48
2023-01-19T06:33:57.890Z,49.40
2023-01-19T06:36:25.638Z,49.33
2023-01-19T06:38:53.565Z,49.43
2023-01-19T06:41:21.497Z,49.71
2023-01-19T06:43:49.442Z,49.43
2023-01-19T06:46:17.155Z,49.66
2023-01-19T06:48:45.103Z,49.50
2023-01-19T06:51:12.946Z,49.41
2023-01-19T06:53:40.764Z,49.56
2023-01-19T06:56:09.564Z,49.59
2023-01-19T06:58:37.586Z,49.61
2023-01-19T07:01:07.261Z,49.53
2023-01-19T07:03:36.719Z,49.55
2023-01-19T07:06:06.691Z,49.28
2023-01-19T07:08:36.877Z,49.65
2023-01-19T07:11:26.290Z,49.44
2023-01-19T07:13:58.026Z,49.36
2023-01-19T07:16:25.969Z,49.54
2023-01-19T07:18:53.832Z,49.74
2023-01-19T07:21:22.102Z,49.47
2023-01-19T07:23:53.692Z,49.61
2023-01-19T07:26:25.019Z,49.87
2023-01-19T07:28:55.922Z,49.52
2023-01-19T07:31:24.002Z,49.82
2023-01-19T07:33:51.831Z,49.70
2023-01-19T07:36:19.584Z,49.64
2023-01-19T07:38:47.946Z,49.34
2023-01-19T07:41:15.705Z,49.13
2023-01-19T07:43:43.564Z,49.42
2023-01-19T07:46:11.683Z,49.27
2023-01-19T07:48:39.531Z,49.31
2023-01-19T07:51:12.988Z,48.90
2023-01-19T07:53:41.901Z,49.66
2023-01-19T07:56:10.347Z,49.25
2023-01-19T07:58:39.448Z,49.39
2023-01-19T08:01:13.592Z,49.25
2023-01-19T08:03:41.619Z,49.59
2023-01-19T08:06:23.840Z,49.08
2023-01-19T08:08:51.641Z,49.67
2023-01-19T08:11:19.532Z,49.61
2023-01-19T08:13:47.295Z,49.40
2023-01-19T08:16:15.152Z,49.44
2023-01-19T08:18:43.715Z,49.76
2023-01-19T08:21:11.576Z,49.47
2023-01-19T08:23:39.450Z,49.37
2023-01-19T08:26:34.752Z,49.46
2023-01-19T08:29:05.956Z,49.46
2023-01-19T08:31:33.882Z,49.34
2023-01-19T08:34:01.764Z,49.48
2023-01-19T08:36:30.342Z,49.20
2023-01-19T08:38:58.061Z,49.08
2023-01-19T08:41:26.158Z,48.94
2023-01-19T08:44:13.838Z,49.32
2023-01-19T08:47:01.599Z,49.02
2023-01-19T08:49:49.299Z,48.78
2023-01-19T08:52:17.117Z,48.91
2023-01-19T08:54:44.872Z,49.06
2023-01-19T08:57:16.224Z,49.06
2023-01-19T08:59:47.297Z,49.19
2023-01-19T09:02:15.531Z,49.38
2023-01-19T09:04:43.262Z,49.47
2023-01-19T09:07:11.407Z,49.06
2023-01-19T09:09:43.303Z,49.11
2023-01-19T09:12:11.538Z,49.43
2023-01-19T09:14:39.303Z,49.24
2023-01-19T09:17:07.055Z,48.91
2023-01-19T09:19:35.153Z,48.71
2023-01-19T09:22:02.970Z,48.92
2023-01-19T09:24:30.911Z,49.37
2023-01-19T09:26:58.736Z,48.78
2023-01-19T09:29:26.488Z,48.89
2023-01-19T09:31:55.655Z,48.96
2023-01-19T09:34:25.537Z,48.90
2023-01-19T09:36:53.615Z,49.07
2023-01-19T09:39:21.437Z,48.88
2023-01-19T09:42:11.584Z,48.65
2023-01-19T09:44:41.819Z,48.77
2023-01-19T09:47:16.411Z,48.98
2023-01-19T09:49:51.098Z,48.69
2023-01-19T09:52:20.469Z,48.67
2023-01-19T09:54:57.032Z,48.48
2023-01-19T09:57:30.344Z,48.94
2023-01-19T09:59:59.597Z,48.57
2023-01-19T10:02:43.022Z,48.81
2023-01-19T10:05:36.337Z,48.50
2023-01-19T10:08:26.394Z,48.69
2023-01-19T10:10:57.676Z,48.50
2023-01-19T10:13:52.473Z,48.57
2023-01-19T10:16:52.195Z,48.48
2023-01-19T10:19:29.909Z,48.63
2023-01-19T10:22:03.831Z,48.74
2023-01-19T10:24:42.211Z,48.47
2023-01-19T10:27:27.258Z,48.27
2023-01-19T10:29:55.466Z,48.60
2023-01-19T10:32:34.052Z,48.24
2023-01-19T10:35:15.168Z,48.49
2023-01-19T10:37:44.792Z,48.48
2023-01-19T10:40:12.502Z,48.33
2023-01-19T10:42:42.081Z,48.51
2023-01-19T10:45:24.012Z,47.75
2023-01-19T10:47:55.329Z,48.37
2023-01-19T10:50:33.158Z,48.27
2023-01-19T10:53:05.803Z,48.24
2023-01-19T10:55:41.591Z,48.47
2023-01-19T10:58:31.131Z,48.71
2023-01-19T11:01:18.682Z,47.95
2023-01-19T11:03:46.833Z,48.51
2023-01-19T11:06:23.541Z,48.37
2023-01-19T11:08:53.962Z,48.12
2023-01-19T11:11:24.515Z,48.13
2023-01-19T11:14:12.151Z,48.23
2023-01-19T11:16:41.094Z,48.12
2023-01-19T11:19:21.872Z,48.08
2023-01-19T11:21:49.689Z,48.15
2023-01-19T11:24:17.757Z,48.22
2023-01-19T11:26:49.987Z,47.92
2023-01-19T11:29:24.393Z,48.12
2023-01-19T11:31:53.889Z,47.89
2023-01-19T11:34:37.926Z,47.99
2023-01-19T11:37:20.601Z,47.79
2023-01-19T11:39:55.005Z,47.72
2023-01-19T11:42:24.518Z,48.11
2023-01-19T11:44:58.362Z,48.14
2023-01-19T11:47:49.290Z,47.89
2023-01-19T11:50:41.635Z,47.89
2023-01-19T11:53:30.806Z,47.97
2023-01-19T11:56:04.685Z,48.08
2023-01-19T11:58:38.025Z,47.76
2023-01-19T12:01:33.166Z,47.88
2023-01-19T12:04:17.662Z,47.85
2023-01-19T12:06:50.458Z,47.76
2023-01-19T12:09:28.169Z,47.45
2023-01-19T12:12:06.382Z,47.85
2023-01-19T12:15:01.586Z,47.68
2023-01-19T12:17:40.454Z,47.38
2023-01-19T12:20:46.638Z,47.54
2023-01-19T12:23:36.070Z,47.35
2023-01-19T12:26:27.936Z,47.42
2023-01-19T12:29:21.856Z,47.30
2023-01-19T12:32:14.327Z,47.56
2023-01-19T12:34:51.786Z,47.32
2023-01-19T12:37:31.197Z,47.46
2023-01-19T12:40:25.567Z,47.20
2023-01-19T12:43:05.693Z,47.33
2023-01-19T12:45:36.493Z,47.51
2023-01-19T12:48:06.902Z,47.52
2023-01-19T12:50:38.832Z,47.66
2023-01-19T12:53:19.271Z,47.32
2023-01-19T12:56:00.962Z,47.45
2023-01-19T12:58:28.853Z,47.77
2023-01-19T13:01:29.205Z,47.84
2023-01-19T13:04:24.491Z,47.71
2023-01-19T13:06:52.516Z,47.68
2023-01-19T13:09:33.551Z,47.66
2023-01-19T13:12:26.265Z,47.62
2023-01-19T13:15:28.137Z,47.70
2023-01-19T13:17:56.778Z,47.29
2023-01-19T13:20:31.741Z,47.40
2023-01-19T13:23:23.942Z,47.45
2023-01-19T13:26:07.087Z,47.33
2023-01-19T13:28:42.556Z,47.54
2023-01-19T13:31:11.906Z,47.44
2023-01-19T13:33:55.822Z,47.39
2023-01-19T13:36:29.522Z,47.34
2023-01-19T13:39:03.254Z,46.99
2023-01-19T13:41:37.567Z,47.01
2023-01-19T13:44:21.033Z,46.68
2023-01-19T13:46:50.219Z,46.94
2023-01-19T13:49:37.280Z,46.78
2023-01-19T13:52:23.290Z,46.52
2023-01-19T13:55:03.024Z,46.83
2023-01-19T13:57:42.229Z,46.60
2023-01-19T14:00:11.870Z,46.90
2023-01-19T14:02:41.664Z,46.83
2023-01-19T14:05:38.596Z,46.52
2023-01-19T14:08:12.426Z,46.50
2023-01-19T14:10:54.473Z,46.76
2023-01-19T14:13:37.116Z,46.65
2023-01-19T14:16:16.274Z,46.60
2023-01-19T14:18:44.414Z,46.65
2023-01-19T14:21:16.202Z,46.50
2023-01-19T14:23:52.988Z,46.38
2023-01-19T14:26:42.871Z,46.20
2023-01-19T14:29:15.461Z,46.26
2023-01-19T14:31:53.459Z,46.09
2023-01-19T14:34:35.235Z,46.11
2023-01-19T14:37:25.818Z,46.17
2023-01-19T14:40:01.451Z,46.05
2023-01-19T14:42:37.394Z,46.01
2023-01-19T14:45:35.292Z,45.85
2023-01-19T14:48:23.072Z,45.81
2023-01-19T14:51:19.318Z,46.05
2023-01-19T14:54:20.315Z,45.46
2023-01-19T14:57:15.383Z,45.58
2023-01-19T14:59:49.532Z,45.18
2023-01-19T15:02:20.989Z,45.69
2023-01-19T15:04:49.073Z,45.44
2023-01-19T15:07:22.502Z,45.15
2023-01-19T15:09:51.608Z,45.13
2023-01-19T15:12:39.319Z,44.97
2023-01-19T15:15:34.311Z,45.06
2023-01-19T15:18:26.954Z,44.89
2023-01-19T15:21:21.586Z,44.83
2023-01-19T15:24:13.735Z,45.00
2023-01-19T15:26:44.963Z,44.75
2023-01-19T15:29:32.685Z,44.66
2023-01-19T15:32:00.608Z,44.85
2023-01-19T15:34:28.380Z,44.94
2023-01-19T15:36:59.734Z,44.81
2023-01-19T15:39:28.083Z,44.34
2023-01-19T15:41:55.912Z,44.73
2023-01-19T15:44:23.669Z,44.50
2023-01-19T15:46:53.810Z,44.31
2023-01-19T15:49:23.571Z,44.70
2023-01-19T15:51:51.472Z,44.52
2023-01-19T15:54:19.633Z,44.60
2023-01-19T15:56:47.580Z,44.29
2023-01-19T15:59:15.391Z,44.25
2023-01-19T16:01:43.362Z,44.33
2023-01-19T16:04:11.879Z,44.96
2023-01-19T16:06:39.831Z,45.00
2023-01-19T16:09:07.768Z,45.02
2023-01-19T16:11:37.653Z,44.86
2023-01-19T16:14:05.426Z,44.89
2023-01-19T16:16:34.295Z,44.91
2023-01-19T16:19:02.130Z,45.04
2023-01-19T16:21:29.911Z,44.90
2023-01-19T16:23:57.659Z,45.28
2023-01-19T16:26:38.219Z,45.15
2023-01-19T16:29:08.781Z,45.13
2023-01-19T16:31:42.692Z,45.20
2023-01-19T16:34:10.927Z,45.59
2023-01-19T16:36:41.264Z,45.46
2023-01-19T16:39:14.040Z,45.42
2023-01-19T16:41:43.411Z,45.41
2023-01-19T16:44:14.829Z,45.40
2023-01-19T16:46:46.894Z,45.35
2023-01-19T16:49:19.009Z,45.00
2023-01-19T16:51:48.033Z,45.01
2023-01-19T16:54:23.043Z,45.33
2023-01-19T16:56:52.013Z,45.38
2023-01-19T16:59:21.995Z,45.23
2023-01-19T17:01:51.899Z,45.21
2023-01-19T17:04:21.926Z,45.31
2023-01-19T17:06:50.188Z,44.90
2023-01-19T17:09:19.816Z,45.20
2023-01-19T17:11:48.775Z,45.47
2023-01-19T17:14:21.924Z,45.17
2023-01-19T17:16:50.743Z,45.45
2023-01-19T17:19:22.158Z,44.96
2023-01-19T17:21:51.025Z,45.26
2023-01-19T17:24:19.798Z,45.35
2023-01-19T17:26:48.777Z,44.90
2023-01-19T17:29:17.909Z,45.24
2023-01-19T17:31:46.787Z,45.18
2023-01-19T17:34:14.882Z,45.08
2023-01-19T17:36:42.866Z,45.29
2023-01-19T17:39:14.888Z,45.27
2023-01-19T17:41:42.809Z,45.20
2023-01-19T17:44:11.100Z,45.33
2023-01-19T17:46:39.429Z,45.26
2023-01-19T17:49:08.448Z,45.14
2023-01-19T17:51:37.850Z,45.55
2023-01-19T17:54:05.751Z,45.24
2023-01-19T17:56:56.255Z,45.56
2023-01-19T17:59:26.426Z,45.83
2023-01-19T18:02:13.462Z,45.62
2023-01-19T18:05:02.511Z,45.57
2023-01-19T18:07:45.166Z,45.49
2023-01-19T18:10:33.319Z,45.56
2023-01-19T18:13:21.339Z,45.71
2023-01-19T18:16:17.131Z,45.51
2023-01-19T18:19:04.985Z,45.63
2023-01-19T18:21:52.720Z,45.86
2023-01-19T18:24:40.478Z,45.83
2023-01-19T18:27:20.129Z,45.91
2023-01-19T18:30:08.768Z,45.75
2023-01-19T18:32:56.455Z,46.05
2023-01-19T18:35:32.820Z,45.70
2023-01-19T18:38:05.405Z,45.80
2023-01-19T18:40:44.580Z,45.95
2023-01-19T18:43:21.323Z,45.85
2023-01-19T18:45:59.985Z,46.02
2023-01-19T18:48:46.048Z,45.78
2023-01-19T18:51:18.738Z,46.03
2023-01-19T18:54:07.078Z,45.63
2023-01-19T18:56:35.421Z,46.10
2023-01-19T18:59:13.969Z,45.92
2023-01-19T19:01:41.983Z,45.85
2023-01-19T19:04:09.941Z,45.33
2023-01-19T19:06:53.059Z,45.85
2023-01-19T19:09:21.149Z,45.62
2023-01-19T19:11:49.795Z,45.74
2023-01-19T19:14:17.622Z,45.85
2023-01-19T19:16:45.784Z,46.03
2023-01-19T19:19:15.388Z,46.10
2023-01-19T19:21:44.549Z,46.12
2023-01-19T19:24:13.477Z,45.82
2023-01-19T19:26:42.010Z,46.10
2023-01-19T19:29:09.806Z,45.92
2023-01-19T19:31:37.745Z,45.94
2023-01-19T19:34:05.684Z,46.05
2023-01-19T19:36:33.598Z,46.14
2023-01-19T19:39:01.801Z,46.01
2023-01-19T19:41:29.812Z,45.53
2023-01-19T19:43:58.371Z,45.93
2023-01-19T19:46:27.812Z,45.81
2023-01-19T19:48:55.557Z,45.70
2023-01-19T19:51:28.407Z,45.78
2023-01-19T19:53:59.469Z,45.80
2023-01-19T19:56:29.977Z,46.09
2023-01-19T19:58:59.543Z,45.95
2023-01-19T20:01:32.808Z,45.96
2023-01-19T20:04:10.993Z,45.66
2023-01-19T20:06:41.885Z,45.68
2023-01-19T20:09:12.649Z,45.91
2023-01-19T20:11:42.350Z,45.86
2023-01-19T20:14:13.718Z,45.88
2023-01-19T20:16:41.851Z,45.51
2023-01-19T20:19:11.034Z,45.57
2023-01-19T20:21:44.085Z,45.69
2023-01-19T20:24:19.013Z,45.62
2023-01-19T20:26:51.626Z,45.33
2023-01-19T20:29:20.791Z,45.52
2023-01-19T20:31:54.165Z,45.88
2023-01-19T20:34:28.034Z,45.98
2023-01-19T20:36:56.982Z,45.85
2023-01-19T20:39:25.380Z,45.50
2023-01-19T20:41:53.487Z,45.82
2023-01-19T20:44:25.420Z,45.89
2023-01-19T20:46:54.368Z,45.64
2023-01-19T20:49:22.762Z,45.75
2023-01-19T20:51:51.934Z,46.10
2023-01-19T20:54:25.830Z,45.46
2023-01-19T20:56:54.021Z,45.85
2023-01-19T20:59:22.485Z,45.94
2023-01-19T21:01:50.561Z,45.85
2023-01-19T21:04:18.470Z,45.77
2023-01-19T21:06:46.343Z,45.55
2023-01-19T21:09:14.098Z,45.85
2023-01-19T21:11:41.864Z,45.56
2023-01-19T21:14:09.693Z,46.00
2023-01-19T21:16:38.120Z,46.05
2023-01-19T21:19:06.166Z,45.92
2023-01-19T21:21:34.238Z,45.65
2023-01-19T21:24:04.037Z,45.80
2023-01-19T21:26:33.487Z,45.68
2023-01-19T21:29:03.526Z,46.23
2023-01-19T21:31:31.622Z,46.03
2023-01-19T21:33:59.792Z,45.85
2023-01-19T21:36:27.797Z,46.11
2023-01-19T21:39:00.380Z,45.80
2023-01-19T21:41:30.137Z,45.91
2023-01-19T21:43:59.899Z,46.13
2023-01-19T21:46:33.133Z,46.30
2023-01-19T21:49:04.700Z,45.74
2023-01-19T21:51:34.627Z,45.91
2023-01-19T21:54:06.549Z,46.22
2023-01-19T21:56:37.824Z,46.27
2023-01-19T21:59:06.489Z,46.21
2023-01-19T22:01:35.434Z,46.26
2023-01-19T22:04:04.178Z,45.99
2023-01-19T22:06:32.006Z,46.19
2023-01-19T22:09:00.688Z,46.25
2023-01-19T22:11:29.264Z,46.07
2023-01-19T22:13:59.693Z,46.56
2023-01-19T22:16:28.837Z,46.11
2023-01-19T22:19:01.063Z,46.24
2023-01-19T22:21:35.671Z,46.25
2023-01-19T22:24:05.334Z,46.38
2023-01-19T22:26:34.563Z,46.24
2023-01-19T22:29:04.284Z,46.14
2023-01-19T22:31:32.383Z,46.66
2023-01-19T22:34:00.425Z,46.29
2023-01-19T22:36:33.829Z,46.13
2023-01-19T22:39:06.244Z,46.14
2023-01-19T22:41:47.335Z,46.15
2023-01-19T22:44:20.753Z,45.91
2023-01-19T22:46:50.794Z,46.27
2023-01-19T22:49:18.800Z,46.20
2023-01-19T22:51:46.966Z,46.47
2023-01-19T22:54:15.056Z,46.13
2023-01-19T22:56:42.987Z,46.47
2023-01-19T22:59:10.743Z,46.09
2023-01-19T23:01:42.609Z,46.41
2023-01-19T23:04:15.076Z,45.89
2023-01-19T23:06:43.453Z,46.25
2023-01-19T23:09:14.152Z,46.16
2023-01-19T23:11:51.341Z,46.15
2023-01-19T23:14:22.044Z,46.03
2023-01-19T23:16:50.155Z,45.99
2023-01-19T23:19:18.988Z,45.82
2023-01-19T23:21:50.097Z,45.72
2023-01-19T23:24:18.041Z,46.05
2023-01-19T23:26:46.130Z,45.96
2023-01-19T23:29:15.489Z,45.87
2023-01-19T23:31:46.779Z,45.92
2023-01-19T23:34:15.160Z,45.88
2023-01-19T23:36:43.769Z,46.00
2023-01-19T23:39:19.034Z,46.11
2023-01-19T23:41:48.544Z,46.11
2023-01-19T23:44:17.221Z,46.30
2023-01-19T23:46:46.230Z,45.96
2023-01-19T23:49:14.194Z,45.98
2023-01-19T23:51:42.569Z,46.18
2023-01-19T23:54:12.265Z,46.40
2023-01-19T23:56:40.465Z,46.74
2023-01-19T23:59:12.208Z,45.89
